sensor_id;sensor_type;location;lat;lon;timestamp;P1;durP1;ratioP1;P2;durP2;ratioP2
29280;SDS011;25048;49.590;11.026;2022-09-30T00:01:13;8.33;;;3.40;;
29280;SDS011;25048;49.590;11.026;2022-09-30T00:03:41;8.83;;;2.93;;
29280;SDS011;25048;49.590;11.026;2022-09-30T00:06:08;4.40;;;2.57;;
29280;SDS011;25048;49.590;11.026;2022-09-30T00:08:37;4.80;;;2.90;;
29280;SDS011;25048;49.590;11.026;2022-09-30T00:11:05;4.93;;;2.97;;
29280;SDS011;25048;49.590;11.026;2022-09-30T00:13:35;3.63;;;2.60;;
29280;SDS011;25048;49.590;11.026;2022-09-30T00:16:05;5.77;;;3.00;;
29280;SDS011;25048;49.590;11.026;2022-09-30T00:18:34;6.33;;;2.97;;
29280;SDS011;25048;49.590;11.026;2022-09-30T00:21:02;6.97;;;2.73;;
29280;SDS011;25048;49.590;11.026;2022-09-30T00:23:30;5.07;;;2.73;;
29280;SDS011;25048;49.590;11.026;2022-09-30T00:25:59;3.57;;;2.47;;
29280;SDS011;25048;49.590;11.026;2022-09-30T00:28:28;4.90;;;3.07;;
29280;SDS011;25048;49.590;11.026;2022-09-30T00:30:59;3.30;;;2.30;;
29280;SDS011;25048;49.590;11.026;2022-09-30T00:33:29;4.80;;;2.87;;
29280;SDS011;25048;49.590;11.026;2022-09-30T00:35:57;7.17;;;2.83;;
29280;SDS011;25048;49.590;11.026;2022-09-30T00:38:25;5.80;;;2.93;;
29280;SDS011;25048;49.590;11.026;2022-09-30T00:40:53;4.23;;;2.43;;
29280;SDS011;25048;49.590;11.026;2022-09-30T00:43:43;4.17;;;2.70;;
29280;SDS011;25048;49.590;11.026;2022-09-30T00:46:16;10.77;;;2.67;;
29280;SDS011;25048;49.590;11.026;2022-09-30T00:48:53;6.50;;;2.87;;
29280;SDS011;25048;49.590;11.026;2022-09-30T00:51:29;8.73;;;2.40;;
29280;SDS011;25048;49.590;11.026;2022-09-30T00:53:56;6.20;;;3.00;;
29280;SDS011;25048;49.590;11.026;2022-09-30T00:59:15;4.90;;;2.87;;
29280;SDS011;25048;49.590;11.026;2022-09-30T01:04:31;5.03;;;2.83;;
29280;SDS011;25048;49.590;11.026;2022-09-30T01:07:02;6.77;;;2.70;;
29280;SDS011;25048;49.590;11.026;2022-09-30T01:09:34;5.33;;;2.80;;
29280;SDS011;25048;49.590;11.026;2022-09-30T01:12:05;7.80;;;3.03;;
29280;SDS011;25048;49.590;11.026;2022-09-30T01:14:35;3.40;;;2.63;;
29280;SDS011;25048;49.590;11.026;2022-09-30T01:17:12;5.87;;;2.63;;
29280;SDS011;25048;49.590;11.026;2022-09-30T01:20:02;4.27;;;2.50;;
29280;SDS011;25048;49.590;11.026;2022-09-30T01:22:43;5.40;;;2.73;;
29280;SDS011;25048;49.590;11.026;2022-09-30T01:25:12;2.93;;;2.60;;
29280;SDS011;25048;49.590;11.026;2022-09-30T01:28:00;8.37;;;2.93;;
29280;SDS011;25048;49.590;11.026;2022-09-30T01:30:52;4.00;;;2.83;;
29280;SDS011;25048;49.590;11.026;2022-09-30T01:33:40;7.03;;;2.70;;
29280;SDS011;25048;49.590;11.026;2022-09-30T01:36:31;3.90;;;2.67;;
29280;SDS011;25048;49.590;11.026;2022-09-30T01:42:01;5.70;;;2.60;;
29280;SDS011;25048;49.590;11.026;2022-09-30T01:47:42;4.63;;;2.50;;
29280;SDS011;25048;49.590;11.026;2022-09-30T01:50:19;4.40;;;3.13;;
29280;SDS011;25048;49.590;11.026;2022-09-30T01:52:53;5.27;;;3.00;;
29280;SDS011;25048;49.590;11.026;2022-09-30T01:55:31;4.53;;;2.83;;
29280;SDS011;25048;49.590;11.026;2022-09-30T01:57:57;11.37;;;3.23;;
29280;SDS011;25048;49.590;11.026;2022-09-30T02:00:32;6.13;;;3.37;;
29280;SDS011;25048;49.590;11.026;2022-09-30T02:03:21;7.97;;;3.90;;
29280;SDS011;25048;49.590;11.026;2022-09-30T02:05:52;8.53;;;3.37;;
29280;SDS011;25048;49.590;11.026;2022-09-30T02:08:25;10.73;;;3.40;;
29280;SDS011;25048;49.590;11.026;2022-09-30T02:13:27;11.03;;;4.57;;
29280;SDS011;25048;49.590;11.026;2022-09-30T02:15:56;18.60;;;5.10;;
29280;SDS011;25048;49.590;11.026;2022-09-30T02:18:37;10.67;;;4.73;;
29280;SDS011;25048;49.590;11.026;2022-09-30T02:21:04;11.13;;;4.77;;
29280;SDS011;25048;49.590;11.026;2022-09-30T02:23:35;13.47;;;5.17;;
29280;SDS011;25048;49.590;11.026;2022-09-30T02:26:06;16.83;;;5.53;;
29280;SDS011;25048;49.590;11.026;2022-09-30T02:28:37;10.70;;;4.90;;
29280;SDS011;25048;49.590;11.026;2022-09-30T02:31:07;12.10;;;4.83;;
29280;SDS011;25048;49.590;11.026;2022-09-30T02:33:47;7.37;;;4.03;;
29280;SDS011;25048;49.590;11.026;2022-09-30T02:39:14;12.50;;;4.47;;
29280;SDS011;25048;49.590;11.026;2022-09-30T02:41:41;17.53;;;5.30;;
29280;SDS011;25048;49.590;11.026;2022-09-30T02:44:09;10.00;;;4.37;;
29280;SDS011;25048;49.590;11.026;2022-09-30T02:49:21;10.57;;;3.90;;
29280;SDS011;25048;49.590;11.026;2022-09-30T02:52:41;8.00;;;4.40;;
29280;SDS011;25048;49.590;11.026;2022-09-30T02:57:14;10.53;;;4.30;;
29280;SDS011;25048;49.590;11.026;2022-09-30T02:59:56;11.30;;;4.53;;
29280;SDS011;25048;49.590;11.026;2022-09-30T03:02:24;10.67;;;4.50;;
29280;SDS011;25048;49.590;11.026;2022-09-30T03:04:51;14.07;;;5.53;;
29280;SDS011;25048;49.590;11.026;2022-09-30T03:07:19;11.60;;;4.93;;
29280;SDS011;25048;49.590;11.026;2022-09-30T03:09:47;13.00;;;5.57;;
29280;SDS011;25048;49.590;11.026;2022-09-30T03:12:32;15.53;;;4.70;;
29280;SDS011;25048;49.590;11.026;2022-09-30T03:15:34;13.57;;;5.40;;
29280;SDS011;25048;49.590;11.026;2022-09-30T03:20:56;16.70;;;5.87;;
29280;SDS011;25048;49.590;11.026;2022-09-30T03:23:44;16.37;;;6.63;;
29280;SDS011;25048;49.590;11.026;2022-09-30T03:29:29;14.23;;;5.63;;
29280;SDS011;25048;49.590;11.026;2022-09-30T03:32:08;18.93;;;5.90;;
29280;SDS011;25048;49.590;11.026;2022-09-30T03:35:28;15.37;;;7.10;;
29280;SDS011;25048;49.590;11.026;2022-09-30T03:37:20;20.07;;;6.13;;
29280;SDS011;25048;49.590;11.026;2022-09-30T03:39:56;13.80;;;6.30;;
29280;SDS011;25048;49.590;11.026;2022-09-30T03:42:43;16.00;;;6.20;;
29280;SDS011;25048;49.590;11.026;2022-09-30T03:45:20;19.53;;;6.50;;
29280;SDS011;25048;49.590;11.026;2022-09-30T03:47:50;18.20;;;6.37;;
29280;SDS011;25048;49.590;11.026;2022-09-30T03:50:20;25.70;;;6.07;;
29280;SDS011;25048;49.590;11.026;2022-09-30T03:52:51;19.67;;;6.37;;
29280;SDS011;25048;49.590;11.026;2022-09-30T03:55:18;17.80;;;6.33;;
29280;SDS011;25048;49.590;11.026;2022-09-30T03:57:47;19.50;;;6.73;;
29280;SDS011;25048;49.590;11.026;2022-09-30T04:00:17;30.43;;;6.93;;
29280;SDS011;25048;49.590;11.026;2022-09-30T04:02:44;21.67;;;6.73;;
29280;SDS011;25048;49.590;11.026;2022-09-30T04:05:12;18.93;;;6.80;;
29280;SDS011;25048;49.590;11.026;2022-09-30T04:07:40;30.80;;;8.30;;
29280;SDS011;25048;49.590;11.026;2022-09-30T04:10:08;24.13;;;6.33;;
29280;SDS011;25048;49.590;11.026;2022-09-30T04:12:35;26.80;;;7.30;;
29280;SDS011;25048;49.590;11.026;2022-09-30T04:15:03;19.10;;;6.27;;
29280;SDS011;25048;49.590;11.026;2022-09-30T04:17:30;12.37;;;6.60;;
29280;SDS011;25048;49.590;11.026;2022-09-30T04:19:58;18.57;;;6.33;;
29280;SDS011;25048;49.590;11.026;2022-09-30T04:22:26;19.03;;;7.13;;
29280;SDS011;25048;49.590;11.026;2022-09-30T04:24:53;19.27;;;6.63;;
29280;SDS011;25048;49.590;11.026;2022-09-30T04:27:21;9.90;;;5.57;;
29280;SDS011;25048;49.590;11.026;2022-09-30T04:29:48;9.93;;;5.63;;
29280;SDS011;25048;49.590;11.026;2022-09-30T04:32:15;20.67;;;5.57;;
29280;SDS011;25048;49.590;11.026;2022-09-30T04:34:43;22.43;;;5.27;;
29280;SDS011;25048;49.590;11.026;2022-09-30T04:37:10;18.00;;;5.77;;
29280;SDS011;25048;49.590;11.026;2022-09-30T04:39:38;21.57;;;5.90;;
29280;SDS011;25048;49.590;11.026;2022-09-30T04:42:06;23.60;;;5.50;;
29280;SDS011;25048;49.590;11.026;2022-09-30T04:44:34;13.43;;;5.60;;
29280;SDS011;25048;49.590;11.026;2022-09-30T04:47:01;28.37;;;5.60;;
29280;SDS011;25048;49.590;11.026;2022-09-30T04:49:29;22.13;;;5.47;;
29280;SDS011;25048;49.590;11.026;2022-09-30T04:51:56;30.93;;;8.30;;
29280;SDS011;25048;49.590;11.026;2022-09-30T04:54:24;19.57;;;5.90;;
29280;SDS011;25048;49.590;11.026;2022-09-30T04:56:51;21.23;;;6.60;;
29280;SDS011;25048;49.590;11.026;2022-09-30T04:59:19;29.23;;;5.80;;
29280;SDS011;25048;49.590;11.026;2022-09-30T05:01:46;25.70;;;6.20;;
29280;SDS011;25048;49.590;11.026;2022-09-30T05:04:14;16.07;;;5.90;;
29280;SDS011;25048;49.590;11.026;2022-09-30T05:06:41;27.17;;;6.53;;
29280;SDS011;25048;49.590;11.026;2022-09-30T05:09:09;30.10;;;6.77;;
29280;SDS011;25048;49.590;11.026;2022-09-30T05:11:36;30.80;;;7.53;;
29280;SDS011;25048;49.590;11.026;2022-09-30T05:14:06;13.07;;;5.17;;
29280;SDS011;25048;49.590;11.026;2022-09-30T05:16:36;22.10;;;5.57;;
29280;SDS011;25048;49.590;11.026;2022-09-30T05:19:04;28.87;;;6.63;;
29280;SDS011;25048;49.590;11.026;2022-09-30T05:21:31;15.00;;;5.40;;
29280;SDS011;25048;49.590;11.026;2022-09-30T05:24:00;21.40;;;5.57;;
29280;SDS011;25048;49.590;11.026;2022-09-30T05:26:28;20.30;;;5.17;;
29280;SDS011;25048;49.590;11.026;2022-09-30T05:28:57;25.13;;;5.17;;
29280;SDS011;25048;49.590;11.026;2022-09-30T05:31:25;10.13;;;5.27;;
29280;SDS011;25048;49.590;11.026;2022-09-30T05:33:52;24.47;;;5.70;;
29280;SDS011;25048;49.590;11.026;2022-09-30T05:36:20;18.20;;;5.30;;
29280;SDS011;25048;49.590;11.026;2022-09-30T05:38:50;16.80;;;4.83;;
29280;SDS011;25048;49.590;11.026;2022-09-30T05:41:18;21.50;;;5.37;;
29280;SDS011;25048;49.590;11.026;2022-09-30T05:43:46;9.23;;;4.90;;
29280;SDS011;25048;49.590;11.026;2022-09-30T05:46:15;15.90;;;6.33;;
29280;SDS011;25048;49.590;11.026;2022-09-30T05:48:44;7.87;;;4.97;;
29280;SDS011;25048;49.590;11.026;2022-09-30T05:51:12;18.73;;;5.33;;
29280;SDS011;25048;49.590;11.026;2022-09-30T05:53:40;15.23;;;4.63;;
29280;SDS011;25048;49.590;11.026;2022-09-30T05:56:08;11.73;;;4.70;;
29280;SDS011;25048;49.590;11.026;2022-09-30T05:58:37;18.20;;;6.63;;
29280;SDS011;25048;49.590;11.026;2022-09-30T06:01:07;15.10;;;4.93;;
29280;SDS011;25048;49.590;11.026;2022-09-30T06:03:36;11.63;;;4.97;;
29280;SDS011;25048;49.590;11.026;2022-09-30T06:06:04;12.33;;;5.70;;
29280;SDS011;25048;49.590;11.026;2022-09-30T06:08:33;15.07;;;4.70;;
29280;SDS011;25048;49.590;11.026;2022-09-30T06:11:00;11.80;;;5.03;;
29280;SDS011;25048;49.590;11.026;2022-09-30T06:13:29;18.33;;;5.10;;
29280;SDS011;25048;49.590;11.026;2022-09-30T06:15:58;13.37;;;5.43;;
29280;SDS011;25048;49.590;11.026;2022-09-30T06:18:27;19.90;;;5.50;;
29280;SDS011;25048;49.590;11.026;2022-09-30T06:20:59;25.67;;;5.90;;
29280;SDS011;25048;49.590;11.026;2022-09-30T06:23:28;19.70;;;5.43;;
29280;SDS011;25048;49.590;11.026;2022-09-30T06:25:59;12.70;;;5.50;;
29280;SDS011;25048;49.590;11.026;2022-09-30T06:28:28;8.67;;;4.70;;
29280;SDS011;25048;49.590;11.026;2022-09-30T06:30:57;12.53;;;4.47;;
29280;SDS011;25048;49.590;11.026;2022-09-30T06:33:25;13.63;;;5.43;;
29280;SDS011;25048;49.590;11.026;2022-09-30T06:35:53;13.17;;;4.90;;
29280;SDS011;25048;49.590;11.026;2022-09-30T06:38:21;9.63;;;5.20;;
29280;SDS011;25048;49.590;11.026;2022-09-30T06:40:48;15.57;;;5.20;;
29280;SDS011;25048;49.590;11.026;2022-09-30T06:43:16;17.23;;;5.17;;
29280;SDS011;25048;49.590;11.026;2022-09-30T06:45:46;13.70;;;5.73;;
29280;SDS011;25048;49.590;11.026;2022-09-30T06:48:16;7.07;;;5.00;;
29280;SDS011;25048;49.590;11.026;2022-09-30T06:50:44;8.17;;;4.97;;
29280;SDS011;25048;49.590;11.026;2022-09-30T06:53:12;7.67;;;4.87;;
29280;SDS011;25048;49.590;11.026;2022-09-30T06:55:40;10.47;;;5.00;;
29280;SDS011;25048;49.590;11.026;2022-09-30T06:58:12;7.80;;;4.93;;
29280;SDS011;25048;49.590;11.026;2022-09-30T07:00:41;6.30;;;4.57;;
29280;SDS011;25048;49.590;11.026;2022-09-30T07:03:10;9.60;;;4.80;;
29280;SDS011;25048;49.590;11.026;2022-09-30T07:05:40;11.00;;;5.00;;
29280;SDS011;25048;49.590;11.026;2022-09-30T07:08:08;11.93;;;5.30;;
29280;SDS011;25048;49.590;11.026;2022-09-30T07:10:35;9.80;;;5.17;;
29280;SDS011;25048;49.590;11.026;2022-09-30T07:13:04;7.97;;;5.57;;
29280;SDS011;25048;49.590;11.026;2022-09-30T07:15:31;8.30;;;5.00;;
29280;SDS011;25048;49.590;11.026;2022-09-30T07:17:59;6.30;;;4.50;;
29280;SDS011;25048;49.590;11.026;2022-09-30T07:20:27;6.67;;;4.50;;
29280;SDS011;25048;49.590;11.026;2022-09-30T07:22:54;12.90;;;4.73;;
29280;SDS011;25048;49.590;11.026;2022-09-30T07:25:23;7.67;;;4.60;;
29280;SDS011;25048;49.590;11.026;2022-09-30T07:27:51;5.23;;;3.73;;
29280;SDS011;25048;49.590;11.026;2022-09-30T07:30:20;4.83;;;3.77;;
29280;SDS011;25048;49.590;11.026;2022-09-30T07:32:48;5.00;;;3.57;;
29280;SDS011;25048;49.590;11.026;2022-09-30T07:35:16;5.77;;;3.80;;
29280;SDS011;25048;49.590;11.026;2022-09-30T07:37:44;9.40;;;4.10;;
29280;SDS011;25048;49.590;11.026;2022-09-30T07:40:11;6.63;;;3.93;;
29280;SDS011;25048;49.590;11.026;2022-09-30T07:42:40;10.33;;;3.80;;
29280;SDS011;25048;49.590;11.026;2022-09-30T07:45:09;7.70;;;4.10;;
29280;SDS011;25048;49.590;11.026;2022-09-30T07:47:38;6.73;;;4.40;;
29280;SDS011;25048;49.590;11.026;2022-09-30T07:50:06;5.53;;;4.20;;
29280;SDS011;25048;49.590;11.026;2022-09-30T07:52:52;11.40;;;4.23;;
29280;SDS011;25048;49.590;11.026;2022-09-30T07:55:21;5.80;;;3.90;;
29280;SDS011;25048;49.590;11.026;2022-09-30T07:57:48;6.10;;;4.33;;
29280;SDS011;25048;49.590;11.026;2022-09-30T08:00:16;7.60;;;4.27;;
29280;SDS011;25048;49.590;11.026;2022-09-30T08:02:43;7.43;;;4.57;;
29280;SDS011;25048;49.590;11.026;2022-09-30T08:05:11;5.93;;;4.43;;
29280;SDS011;25048;49.590;11.026;2022-09-30T08:07:39;5.83;;;4.30;;
29280;SDS011;25048;49.590;11.026;2022-09-30T08:10:06;5.13;;;3.83;;
29280;SDS011;25048;49.590;11.026;2022-09-30T08:12:35;9.73;;;4.10;;
29280;SDS011;25048;49.590;11.026;2022-09-30T08:15:03;4.57;;;3.57;;
29280;SDS011;25048;49.590;11.026;2022-09-30T08:17:33;6.00;;;3.80;;
29280;SDS011;25048;49.590;11.026;2022-09-30T08:20:00;5.50;;;4.13;;
29280;SDS011;25048;49.590;11.026;2022-09-30T08:22:28;5.20;;;3.77;;
29280;SDS011;25048;49.590;11.026;2022-09-30T08:24:55;6.60;;;4.03;;
29280;SDS011;25048;49.590;11.026;2022-09-30T08:27:22;4.80;;;3.70;;
29280;SDS011;25048;49.590;11.026;2022-09-30T08:29:50;7.37;;;4.03;;
29280;SDS011;25048;49.590;11.026;2022-09-30T08:32:17;5.90;;;4.20;;
29280;SDS011;25048;49.590;11.026;2022-09-30T08:34:45;5.20;;;4.03;;
29280;SDS011;25048;49.590;11.026;2022-09-30T08:37:12;5.47;;;4.13;;
29280;SDS011;25048;49.590;11.026;2022-09-30T08:39:40;6.07;;;4.07;;
29280;SDS011;25048;49.590;11.026;2022-09-30T08:44:48;6.43;;;4.40;;
29280;SDS011;25048;49.590;11.026;2022-09-30T08:52:37;7.03;;;4.43;;
29280;SDS011;25048;49.590;11.026;2022-09-30T08:55:07;5.77;;;4.47;;
29280;SDS011;25048;49.590;11.026;2022-09-30T08:57:39;7.97;;;5.17;;
29280;SDS011;25048;49.590;11.026;2022-09-30T09:00:13;8.50;;;6.27;;
29280;SDS011;25048;49.590;11.026;2022-09-30T09:02:43;7.03;;;5.07;;
29280;SDS011;25048;49.590;11.026;2022-09-30T09:05:19;7.03;;;5.00;;
29280;SDS011;25048;49.590;11.026;2022-09-30T09:08:00;8.83;;;4.47;;
29280;SDS011;25048;49.590;11.026;2022-09-30T09:10:41;5.73;;;4.77;;
29280;SDS011;25048;49.590;11.026;2022-09-30T09:13:16;6.87;;;4.57;;
29280;SDS011;25048;49.590;11.026;2022-09-30T09:19:10;6.23;;;4.63;;
29280;SDS011;25048;49.590;11.026;2022-09-30T09:24:26;7.00;;;4.37;;
29280;SDS011;25048;49.590;11.026;2022-09-30T09:26:56;7.23;;;4.03;;
29280;SDS011;25048;49.590;11.026;2022-09-30T09:32:14;5.63;;;4.13;;
29280;SDS011;25048;49.590;11.026;2022-09-30T09:34:43;7.77;;;4.97;;
29280;SDS011;25048;49.590;11.026;2022-09-30T09:40:22;7.70;;;5.03;;
29280;SDS011;25048;49.590;11.026;2022-09-30T09:43:03;8.70;;;6.07;;
29280;SDS011;25048;49.590;11.026;2022-09-30T09:45:34;7.90;;;6.07;;
29280;SDS011;25048;49.590;11.026;2022-09-30T09:48:06;7.93;;;5.73;;
29280;SDS011;25048;49.590;11.026;2022-09-30T09:50:36;9.70;;;6.30;;
29280;SDS011;25048;49.590;11.026;2022-09-30T09:53:21;11.27;;;7.20;;
29280;SDS011;25048;49.590;11.026;2022-09-30T09:55:59;6.67;;;5.57;;
29280;SDS011;25048;49.590;11.026;2022-09-30T09:58:27;9.90;;;6.57;;
29280;SDS011;25048;49.590;11.026;2022-09-30T10:01:09;9.20;;;6.03;;
29280;SDS011;25048;49.590;11.026;2022-09-30T10:03:38;8.93;;;6.37;;
29280;SDS011;25048;49.590;11.026;2022-09-30T10:06:08;8.87;;;6.20;;
29280;SDS011;25048;49.590;11.026;2022-09-30T10:08:39;10.57;;;6.30;;
29280;SDS011;25048;49.590;11.026;2022-09-30T10:11:22;7.17;;;5.60;;
29280;SDS011;25048;49.590;11.026;2022-09-30T10:13:54;9.77;;;5.50;;
29280;SDS011;25048;49.590;11.026;2022-09-30T10:16:32;10.77;;;5.80;;
29280;SDS011;25048;49.590;11.026;2022-09-30T10:19:04;7.40;;;5.57;;
29280;SDS011;25048;49.590;11.026;2022-09-30T10:21:34;8.33;;;6.40;;
29280;SDS011;25048;49.590;11.026;2022-09-30T10:24:17;12.00;;;6.67;;
29280;SDS011;25048;49.590;11.026;2022-09-30T10:26:35;9.10;;;6.07;;
29280;SDS011;25048;49.590;11.026;2022-09-30T10:29:19;8.73;;;6.23;;
29280;SDS011;25048;49.590;11.026;2022-09-30T10:31:37;9.67;;;6.50;;
29280;SDS011;25048;49.590;11.026;2022-09-30T10:35:10;8.10;;;6.03;;
29280;SDS011;25048;49.590;11.026;2022-09-30T10:36:56;10.33;;;5.63;;
29280;SDS011;25048;49.590;11.026;2022-09-30T10:39:27;6.73;;;5.17;;
29280;SDS011;25048;49.590;11.026;2022-09-30T10:44:40;7.73;;;4.90;;
29280;SDS011;25048;49.590;11.026;2022-09-30T10:47:04;9.83;;;5.23;;
29280;SDS011;25048;49.590;11.026;2022-09-30T10:49:36;7.80;;;4.47;;
29280;SDS011;25048;49.590;11.026;2022-09-30T10:52:18;6.73;;;4.40;;
29280;SDS011;25048;49.590;11.026;2022-09-30T10:54:49;6.70;;;4.53;;
29280;SDS011;25048;49.590;11.026;2022-09-30T10:57:22;7.30;;;5.10;;
29280;SDS011;25048;49.590;11.026;2022-09-30T11:00:24;8.07;;;5.03;;
29280;SDS011;25048;49.590;11.026;2022-09-30T11:07:45;5.53;;;4.87;;
29280;SDS011;25048;49.590;11.026;2022-09-30T11:15:29;10.47;;;4.40;;
29280;SDS011;25048;49.590;11.026;2022-09-30T11:18:06;5.58;;;3.77;;
29280;SDS011;25048;49.590;11.026;2022-09-30T11:20:40;6.78;;;4.70;;
29280;SDS011;25048;49.590;11.026;2022-09-30T11:23:18;5.53;;;4.22;;
29280;SDS011;25048;49.590;11.026;2022-09-30T11:26:01;8.95;;;4.95;;
29280;SDS011;25048;49.590;11.026;2022-09-30T11:28:35;7.35;;;4.12;;
29280;SDS011;25048;49.590;11.026;2022-09-30T11:40:02;6.07;;;4.03;;
29280;SDS011;25048;49.590;11.026;2022-09-30T11:42:39;6.17;;;3.10;;
29280;SDS011;25048;49.590;11.026;2022-09-30T11:45:35;7.15;;;3.58;;
29280;SDS011;25048;49.590;11.026;2022-09-30T11:48:11;5.63;;;3.80;;
29280;SDS011;25048;49.590;11.026;2022-09-30T11:50:44;6.67;;;3.20;;
29280;SDS011;25048;49.590;11.026;2022-09-30T11:53:58;7.10;;;3.70;;
29280;SDS011;25048;49.590;11.026;2022-09-30T11:59:25;7.30;;;3.92;;
29280;SDS011;25048;49.590;11.026;2022-09-30T12:01:57;10.68;;;3.95;;
29280;SDS011;25048;49.590;11.026;2022-09-30T12:04:44;6.37;;;4.20;;
29280;SDS011;25048;49.590;11.026;2022-09-30T12:07:16;5.30;;;3.52;;
29280;SDS011;25048;49.590;11.026;2022-09-30T12:09:50;6.47;;;3.47;;
29280;SDS011;25048;49.590;11.026;2022-09-30T12:12:22;7.15;;;3.20;;
29280;SDS011;25048;49.590;11.026;2022-09-30T12:14:50;4.83;;;3.25;;
29280;SDS011;25048;49.590;11.026;2022-09-30T12:20:25;4.42;;;2.87;;
29280;SDS011;25048;49.590;11.026;2022-09-30T12:22:51;3.98;;;2.75;;
29280;SDS011;25048;49.590;11.026;2022-09-30T12:25:23;5.12;;;2.67;;
29280;SDS011;25048;49.590;11.026;2022-09-30T12:27:56;6.35;;;2.85;;
29280;SDS011;25048;49.590;11.026;2022-09-30T12:30:37;4.77;;;2.80;;
29280;SDS011;25048;49.590;11.026;2022-09-30T12:33:15;6.53;;;2.70;;
29280;SDS011;25048;49.590;11.026;2022-09-30T12:41:50;3.95;;;2.95;;
29280;SDS011;25048;49.590;11.026;2022-09-30T12:47:32;5.90;;;2.95;;
29280;SDS011;25048;49.590;11.026;2022-09-30T12:50:02;3.20;;;2.90;;
29280;SDS011;25048;49.590;11.026;2022-09-30T12:52:33;5.75;;;2.92;;
29280;SDS011;25048;49.590;11.026;2022-09-30T12:57:38;7.87;;;3.60;;
29280;SDS011;25048;49.590;11.026;2022-09-30T13:00:14;5.60;;;3.90;;
29280;SDS011;25048;49.590;11.026;2022-09-30T13:02:48;8.35;;;3.70;;
29280;SDS011;25048;49.590;11.026;2022-09-30T13:08:08;4.40;;;3.50;;
29280;SDS011;25048;49.590;11.026;2022-09-30T13:13:21;3.92;;;2.33;;
29280;SDS011;25048;49.590;11.026;2022-09-30T13:15:54;4.62;;;3.10;;
29280;SDS011;25048;49.590;11.026;2022-09-30T13:23:40;3.75;;;2.67;;
29280;SDS011;25048;49.590;11.026;2022-09-30T13:28:54;3.90;;;2.60;;
29280;SDS011;25048;49.590;11.026;2022-09-30T13:31:27;5.62;;;2.77;;
29280;SDS011;25048;49.590;11.026;2022-09-30T13:36:40;3.43;;;2.50;;
29280;SDS011;25048;49.590;11.026;2022-09-30T13:44:58;4.42;;;2.65;;
29280;SDS011;25048;49.590;11.026;2022-09-30T13:47:44;3.75;;;2.20;;
29280;SDS011;25048;49.590;11.026;2022-09-30T13:50:33;4.12;;;3.05;;
29280;SDS011;25048;49.590;11.026;2022-09-30T13:53:13;5.05;;;3.05;;
29280;SDS011;25048;49.590;11.026;2022-09-30T13:55:59;5.25;;;2.90;;
29280;SDS011;25048;49.590;11.026;2022-09-30T14:10:14;5.17;;;2.90;;
29280;SDS011;25048;49.590;11.026;2022-09-30T14:13:04;5.60;;;3.72;;
29280;SDS011;25048;49.590;11.026;2022-09-30T14:21:38;6.53;;;3.22;;
29280;SDS011;25048;49.590;11.026;2022-09-30T14:24:20;3.12;;;2.47;;
29280;SDS011;25048;49.590;11.026;2022-09-30T14:26:55;11.55;;;3.25;;
29280;SDS011;25048;49.590;11.026;2022-09-30T14:31:58;6.30;;;2.90;;
29280;SDS011;25048;49.590;11.026;2022-09-30T14:34:27;4.53;;;2.45;;
29280;SDS011;25048;49.590;11.026;2022-09-30T14:36:56;3.95;;;3.10;;
29280;SDS011;25048;49.590;11.026;2022-09-30T14:39:25;3.52;;;2.90;;
29280;SDS011;25048;49.590;11.026;2022-09-30T14:41:59;8.73;;;3.52;;
29280;SDS011;25048;49.590;11.026;2022-09-30T14:44:26;4.45;;;3.10;;
29280;SDS011;25048;49.590;11.026;2022-09-30T14:47:01;3.58;;;2.52;;
29280;SDS011;25048;49.590;11.026;2022-09-30T14:49:30;2.92;;;2.02;;
29280;SDS011;25048;49.590;11.026;2022-09-30T14:52:01;2.27;;;1.80;;
29280;SDS011;25048;49.590;11.026;2022-09-30T14:54:30;4.40;;;2.00;;
29280;SDS011;25048;49.590;11.026;2022-09-30T14:56:59;3.45;;;2.50;;
29280;SDS011;25048;49.590;11.026;2022-09-30T14:59:32;5.42;;;2.25;;
29280;SDS011;25048;49.590;11.026;2022-09-30T15:02:01;3.45;;;2.47;;
29280;SDS011;25048;49.590;11.026;2022-09-30T15:04:36;3.20;;;2.33;;
29280;SDS011;25048;49.590;11.026;2022-09-30T15:07:10;4.40;;;2.40;;
29280;SDS011;25048;49.590;11.026;2022-09-30T15:09:39;3.47;;;2.17;;
29280;SDS011;25048;49.590;11.026;2022-09-30T15:12:12;3.02;;;1.70;;
29280;SDS011;25048;49.590;11.026;2022-09-30T15:14:45;2.50;;;1.87;;
29280;SDS011;25048;49.590;11.026;2022-09-30T15:17:18;6.75;;;2.42;;
29280;SDS011;25048;49.590;11.026;2022-09-30T15:19:48;3.67;;;1.87;;
29280;SDS011;25048;49.590;11.026;2022-09-30T15:22:16;1.98;;;1.77;;
29280;SDS011;25048;49.590;11.026;2022-09-30T15:24:45;4.75;;;2.30;;
29280;SDS011;25048;49.590;11.026;2022-09-30T15:27:19;4.95;;;2.25;;
29280;SDS011;25048;49.590;11.026;2022-09-30T15:29:58;4.62;;;1.98;;
29280;SDS011;25048;49.590;11.026;2022-09-30T15:32:28;4.05;;;1.70;;
29280;SDS011;25048;49.590;11.026;2022-09-30T15:35:13;1.80;;;1.30;;
29280;SDS011;25048;49.590;11.026;2022-09-30T15:37:38;3.60;;;1.55;;
29280;SDS011;25048;49.590;11.026;2022-09-30T15:40:12;3.12;;;1.50;;
29280;SDS011;25048;49.590;11.026;2022-09-30T15:43:00;3.02;;;1.50;;
29280;SDS011;25048;49.590;11.026;2022-09-30T15:45:32;2.22;;;1.35;;
29280;SDS011;25048;49.590;11.026;2022-09-30T15:50:42;2.02;;;1.10;;
29280;SDS011;25048;49.590;11.026;2022-09-30T15:53:19;1.67;;;1.35;;
29280;SDS011;25048;49.590;11.026;2022-09-30T15:55:53;1.60;;;1.20;;
29280;SDS011;25048;49.590;11.026;2022-09-30T16:01:13;1.85;;;1.37;;
29280;SDS011;25048;49.590;11.026;2022-09-30T16:03:51;4.03;;;1.07;;
29280;SDS011;25048;49.590;11.026;2022-09-30T16:06:34;2.50;;;0.90;;
29280;SDS011;25048;49.590;11.026;2022-09-30T16:14:42;1.55;;;1.10;;
29280;SDS011;25048;49.590;11.026;2022-09-30T16:17:23;2.15;;;1.02;;
29280;SDS011;25048;49.590;11.026;2022-09-30T16:19:48;1.70;;;1.10;;
29280;SDS011;25048;49.590;11.026;2022-09-30T16:22:31;1.70;;;1.10;;
29280;SDS011;25048;49.590;11.026;2022-09-30T16:25:12;2.25;;;1.20;;
29280;SDS011;25048;49.590;11.026;2022-09-30T16:28:09;1.72;;;1.05;;
29280;SDS011;25048;49.590;11.026;2022-09-30T16:30:42;2.53;;;1.53;;
29280;SDS011;25048;49.590;11.026;2022-09-30T16:33:12;1.70;;;1.13;;
29280;SDS011;25048;49.590;11.026;2022-09-30T16:35:44;2.80;;;1.40;;
29280;SDS011;25048;49.590;11.026;2022-09-30T16:38:15;3.50;;;1.40;;
29280;SDS011;25048;49.590;11.026;2022-09-30T16:40:44;3.77;;;1.75;;
29280;SDS011;25048;49.590;11.026;2022-09-30T16:43:12;1.72;;;1.42;;
29280;SDS011;25048;49.590;11.026;2022-09-30T16:45:39;3.67;;;1.50;;
29280;SDS011;25048;49.590;11.026;2022-09-30T16:48:12;1.93;;;1.73;;
29280;SDS011;25048;49.590;11.026;2022-09-30T16:50:48;3.13;;;1.70;;
29280;SDS011;25048;49.590;11.026;2022-09-30T16:53:20;2.05;;;1.50;;
29280;SDS011;25048;49.590;11.026;2022-09-30T16:55:48;2.77;;;1.53;;
29280;SDS011;25048;49.590;11.026;2022-09-30T16:58:17;3.10;;;1.40;;
29280;SDS011;25048;49.590;11.026;2022-09-30T17:00:45;2.30;;;1.50;;
29280;SDS011;25048;49.590;11.026;2022-09-30T17:03:13;1.93;;;1.60;;
29280;SDS011;25048;49.590;11.026;2022-09-30T17:05:43;2.30;;;1.43;;
29280;SDS011;25048;49.590;11.026;2022-09-30T17:08:14;1.43;;;1.33;;
29280;SDS011;25048;49.590;11.026;2022-09-30T17:10:42;2.03;;;1.40;;
29280;SDS011;25048;49.590;11.026;2022-09-30T17:13:12;4.17;;;1.67;;
29280;SDS011;25048;49.590;11.026;2022-09-30T17:15:47;2.47;;;1.50;;
29280;SDS011;25048;49.590;11.026;2022-09-30T17:18:19;2.03;;;1.80;;
29280;SDS011;25048;49.590;11.026;2022-09-30T17:20:47;1.97;;;1.53;;